Time,TemperatureF,DewpointF,PressureIn,WindDirection,WindDirectionDegrees,WindSpeedMPH,WindSpeedGustMPH,Humidity,HourlyPrecipIn,Conditions,Clouds,dailyrainin,SolarRadiationWatts/m^2,SoftwareType,DateUTC
2013-01-01 00:05:00,16.2,11.1,30.21,North,9,1.0,10.0,80,0.00,,,0.00,0,Wunderground v.1.15,2013-01-01 06:05:00,
2013-01-01 00:10:00,16.1,11.0,30.21,NNE,17,1.0,10.0,80,0.00,,,0.00,0,Wunderground v.1.15,2013-01-01 06:10:00,
2013-01-01 00:20:00,15.9,10.8,30.21,NNE,19,1.0,1.0,80,0.00,,,0.00,0,Wunderground v.1.15,2013-01-01 06:20:00,
2013-01-01 00:30:00,15.8,10.7,30.21,NNE,14,0.0,10.0,80,0.00,,,0.00,0,Wunderground v.1.15,2013-01-01 06:30:00,
2013-01-01 00:40:00,15.5,10.7,30.21,North,5,1.0,10.0,81,0.00,,,0.00,0,Wunderground v.1.15,2013-01-01 06:40:00,
2013-01-01 00:45:00,15.4,10.6,30.21,North,351,2.0,10.0,81,0.00,,,0.00,0,Wunderground v.1.15,2013-01-01 06:45:00,
2013-01-01 00:50:00,15.2,10.4,30.21,North,355,2.0,10.0,81,0.00,,,0.00,0,Wunderground v.1.15,2013-01-01 06:50:00,
2013-01-01 01:00:00,14.9,10.1,30.21,North,5,2.0,10.0,81,0.00,,,0.00,0,Wunderground v.1.15,2013-01-01 07:00:00,
2013-01-01 01:05:00,14.7,9.9,30.21,North,355,2.0,10.0,81,0.00,,,0.00,0,Wunderground v.1.15,2013-01-01 07:05:00,
2013-01-01 01:15:00,14.4,9.6,30.21,North,360,2.0,2.0,81,0.00,,,0.00,0,Wunderground v.1.15,2013-01-01 07:15:00,
2013-01-01 01:25:00,14.1,9.3,30.21,North,360,0.0,2.0,81,0.00,,,0.00,0,Wunderground v.1.15,2013-01-01 07:25:00,
2013-01-01 01:35:00,13.9,9.4,30.22,North,360,0.0,2.0,82,0.00,,,0.00,0,Wunderground v.1.15,2013-01-01 07:35:00,
2013-01-01 01:45:00,13.5,9.0,30.23,North,360,0.0,1.0,82,0.00,,,0.00,0,Wunderground v.1.15,2013-01-01 07:45:00,
2013-01-01 01:55:00,13.4,8.9,30.23,North,360,1.0,1.0,82,0.00,,,0.00,0,Wunderground v.1.15,2013-01-01 07:55:00,
2013-01-01 02:05:00,13.0,8.8,30.23,North,9,2.0,5.0,83,0.00,,,0.00,0,Wunderground v.1.15,2013-01-01 08:05:00,
2013-01-01 02:15:00,12.7,8.5,30.23,North,360,2.0,5.0,83,0.00,,,0.00,0,Wunderground v.1.15,2013-01-01 08:15:00,
2013-01-01 02:25:00,12.5,8.3,30.23,North,5,1.0,5.0,83,0.00,,,0.00,0,Wunderground v.1.15,2013-01-01 08:25:00,
2013-01-01 02:35:00,12.3,8.1,30.24,North,5,1.0,5.0,83,0.00,,,0.00,0,Wunderground v.1.15,2013-01-01 08:35:00,
2013-01-01 02:45:00,12.1,8.2,30.24,NNE,17,1.0,5.0,84,0.00,,,0.00,0,Wunderground v.1.15,2013-01-01 08:45:00,
2013-01-01 02:50:00,11.9,8.0,30.24,NNE,17,1.0,1.0,84,0.00,,,0.00,0,Wunderground v.1.15,2013-01-01 08:50:00,
2013-01-01 03:00:00,11.7,7.5,30.24,NNE,17,0.0,5.0,83,0.00,,,0.00,0,Wunderground v.1.15,2013-01-01 09:00:00,
2013-01-01 03:10:00,11.4,7.2,30.24,NNE,17,0.0,5.0,83,0.00,,,0.00,0,Wunderground v.1.15,2013-01-01 09:10:00,
2013-01-01 03:15:00,11.3,7.1,30.25,NNE,17,0.0,5.0,83,0.00,,,0.00,0,Wunderground v.1.15,2013-01-01 09:15:00,
2013-01-01 03:25:00,11.1,6.9,30.25,NNE,17,0.0,5.0,83,0.00,,,0.00,0,Wunderground v.1.15,2013-01-01 09:25:00,
2013-01-01 03:35:00,10.8,6.4,30.25,NNE,25,0.0,5.0,82,0.00,,,0.00,0,Wunderground v.1.15,2013-01-01 09:35:00,
2013-01-01 03:45:00,10.6,6.2,30.25,NNE,19,0.0,5.0,82,0.00,,,0.00,0,Wunderground v.1.15,2013-01-01 09:45:00,
2013-01-01 03:50:00,10.5,6.1,30.25,NNE,19,0.0,5.0,82,0.00,,,0.00,0,Wunderground v.1.15,2013-01-01 09:50:00,
2013-01-01 03:55:00,10.4,6.0,30.25,NNE,19,0.0,5.0,82,0.00,,,0.00,0,Wunderground v.1.15,2013-01-01 09:55:00,
2013-01-01 04:00:00,10.4,6.0,30.25,NNE,19,0.0,5.0,82,0.00,,,0.00,0,Wunderground v.1.15,2013-01-01 10:00:00,
2013-01-01 04:10:00,10.1,5.4,30.25,NNE,19,0.0,5.0,81,0.00,,,0.00,0,Wunderground v.1.15,2013-01-01 10:10:00,
2013-01-01 04:15:00,10.1,5.4,30.25,NNE,19,0.0,5.0,81,0.00,,,0.00,0,Wunderground v.1.15,2013-01-01 10:15:00,
2013-01-01 04:25:00,9.9,5.2,30.25,NNE,19,0.0,5.0,81,0.00,,,0.00,0,Wunderground v.1.15,2013-01-01 10:25:00,
2013-01-01 04:35:00,9.8,4.9,30.25,NNE,19,0.0,5.0,80,0.00,,,0.00,0,Wunderground v.1.15,2013-01-01 10:35:00,
2013-01-01 04:45:00,9.4,4.2,30.25,NNE,15,1.0,5.0,79,0.00,,,0.00,0,Wunderground v.1.15,2013-01-01 10:45:00,
2013-01-01 04:55:00,9.1,3.6,30.25,NNE,15,0.0,5.0,78,0.00,,,0.00,0,Wunderground v.1.15,2013-01-01 10:55:00,
2013-01-01 05:05:00,8.9,3.2,30.25,ENE,71,0.0,5.0,77,0.00,,,0.00,0,Wunderground v.1.15,2013-01-01 11:05:00,
2013-01-01 05:15:00,8.5,2.5,30.24,ENE,71,0.0,5.0,76,0.00,,,0.00,0,Wunderground v.1.15,2013-01-01 11:15:00,
2013-01-01 05:25:00,8.3,2.3,30.24,ENE,71,0.0,5.0,76,0.00,,,0.00,0,Wunderground v.1.15,2013-01-01 11:25:00,
2013-01-01 05:30:00,8.2,2.2,30.24,ENE,71,0.0,5.0,76,0.00,,,0.00,0,Wunderground v.1.15,2013-01-01 11:30:00,
2013-01-01 05:40:00,8.1,2.1,30.24,ENE,71,0.0,5.0,76,0.00,,,0.00,0,Wunderground v.1.15,2013-01-01 11:40:00,
2013-01-01 05:50:00,7.9,1.9,30.23,ENE,71,0.0,5.0,76,0.00,,,0.00,0,Wunderground v.1.15,2013-01-01 11:50:00,
2013-01-01 06:00:00,7.8,1.8,30.24,ENE,71,0.0,5.0,76,0.00,,,0.00,0,Wunderground v.1.15,2013-01-01 12:00:00,
2013-01-01 06:10:00,7.7,1.7,30.24,ENE,71,0.0,5.0,76,0.00,,,0.00,0,Wunderground v.1.15,2013-01-01 12:10:00,
2013-01-01 06:15:00,7.7,1.7,30.24,ENE,69,0.0,5.0,76,0.00,,,0.00,0,Wunderground v.1.15,2013-01-01 12:15:00,
2013-01-01 06:25:00,7.6,1.6,30.24,ENE,69,0.0,5.0,76,0.00,,,0.00,0,Wunderground v.1.15,2013-01-01 12:25:00,
2013-01-01 06:35:00,7.6,1.6,30.24,ENE,69,0.0,5.0,76,0.00,,,0.00,0,Wunderground v.1.15,2013-01-01 12:35:00,
2013-01-01 06:40:00,7.5,1.8,30.24,ENE,65,0.0,5.0,77,0.00,,,0.00,0,Wunderground v.1.15,2013-01-01 12:40:00,
2013-01-01 06:50:00,7.3,1.6,30.24,ENE,65,0.0,5.0,77,0.00,,,0.00,0,Wunderground v.1.15,2013-01-01 12:50:00,
2013-01-01 07:00:00,7.1,1.7,30.25,ENE,65,0.0,5.0,78,0.00,,,0.00,0,Wunderground v.1.15,2013-01-01 13:00:00,
2013-01-01 07:10:00,6.8,1.4,30.25,ENE,65,0.0,5.0,78,0.00,,,0.00,0,Wunderground v.1.15,2013-01-01 13:10:00,
2013-01-01 07:20:00,6.5,1.1,30.24,ENE,65,0.0,5.0,78,0.00,,,0.00,0,Wunderground v.1.15,2013-01-01 13:20:00,
2013-01-01 07:30:00,6.3,1.2,30.25,ENE,65,0.0,5.0,79,0.00,,,0.00,0,Wunderground v.1.15,2013-01-01 13:30:00,
2013-01-01 07:40:00,6.1,1.0,30.25,ENE,64,0.0,5.0,79,0.00,,,0.00,0,Wunderground v.1.15,2013-01-01 13:40:00,
2013-01-01 07:45:00,5.9,0.8,30.25,ENE,65,0.0,5.0,79,0.00,,,0.00,0,Wunderground v.1.15,2013-01-01 13:45:00,
2013-01-01 07:55:00,5.8,0.7,30.25,ENE,65,0.0,5.0,79,0.00,,,0.00,9,Wunderground v.1.15,2013-01-01 13:55:00,
2013-01-01 08:05:00,5.7,0.9,30.25,ENE,65,0.0,5.0,80,0.00,,,0.00,12,Wunderground v.1.15,2013-01-01 14:05:00,
2013-01-01 08:15:00,5.7,0.9,30.26,ENE,65,0.0,0.0,80,0.00,,,0.00,18,Wunderground v.1.15,2013-01-01 14:15:00,
2013-01-01 08:25:00,5.8,1.0,30.26,ENE,65,0.0,0.0,80,0.00,,,0.00,54,Wunderground v.1.15,2013-01-01 14:25:00,
2013-01-01 08:30:00,5.8,1.0,30.27,ENE,65,0.0,0.0,80,0.00,,,0.00,35,Wunderground v.1.15,2013-01-01 14:30:00,
2013-01-01 08:40:00,6.0,1.4,30.27,ENE,65,0.0,0.0,81,0.00,,,0.00,76,Wunderground v.1.15,2013-01-01 14:40:00,
2013-01-01 08:45:00,6.1,1.3,30.27,ENE,65,0.0,0.0,80,0.00,,,0.00,95,Wunderground v.1.15,2013-01-01 14:45:00,
2013-01-01 08:55:00,6.3,1.4,30.27,ENE,64,0.0,0.0,80,0.00,,,0.00,162,Wunderground v.1.15,2013-01-01 14:55:00,
2013-01-01 09:05:00,6.8,1.7,30.27,ENE,65,0.0,0.0,79,0.00,,,0.00,200,Wunderground v.1.15,2013-01-01 15:05:00,
2013-01-01 09:15:00,7.3,2.2,30.27,ENE,65,0.0,0.0,79,0.00,,,0.00,214,Wunderground v.1.15,2013-01-01 15:15:00,
2013-01-01 09:25:00,7.9,2.2,30.27,ENE,64,0.0,0.0,77,0.00,,,0.00,220,Wunderground v.1.15,2013-01-01 15:25:00,
2013-01-01 09:30:00,8.1,2.1,30.28,ENE,65,0.0,0.0,76,0.00,,,0.00,230,Wunderground v.1.15,2013-01-01 15:30:00,
2013-01-01 09:40:00,9.1,2.5,30.28,South,191,0.0,0.0,74,0.00,,,0.00,253,Wunderground v.1.15,2013-01-01 15:40:00,
2013-01-01 09:45:00,9.6,2.7,30.29,South,190,0.0,0.0,73,0.00,,,0.00,264,Wunderground v.1.15,2013-01-01 15:45:00,
2013-01-01 09:55:00,9.9,2.4,30.29,SSW,192,0.0,0.0,71,0.00,,,0.00,279,Wunderground v.1.15,2013-01-01 15:55:00,
2013-01-01 10:00:00,9.9,2.1,30.29,SSW,192,0.0,0.0,70,0.00,,,0.00,294,Wunderground v.1.15,2013-01-01 16:00:00,
2013-01-01 10:10:00,10.5,2.3,30.29,SSW,192,0.0,0.0,69,0.00,,,0.00,313,Wunderground v.1.15,2013-01-01 16:10:00,
2013-01-01 10:20:00,11.6,3.4,30.29,SSW,192,0.0,0.0,69,0.00,,,0.00,329,Wunderground v.1.15,2013-01-01 16:20:00,
2013-01-01 10:25:00,11.5,2.3,30.29,SSW,192,0.0,0.0,66,0.00,,,0.00,338,Wunderground v.1.15,2013-01-01 16:25:00,
2013-01-01 10:30:00,12.3,3.1,30.29,SSW,192,0.0,0.0,66,0.00,,,0.00,346,Wunderground v.1.15,2013-01-01 16:30:00,
2013-01-01 10:40:00,12.4,2.5,30.29,SSW,192,0.0,0.0,64,0.00,,,0.00,362,Wunderground v.1.15,2013-01-01 16:40:00,
2013-01-01 10:50:00,13.0,2.4,30.30,SSW,192,0.0,0.0,62,0.00,,,0.00,373,Wunderground v.1.15,2013-01-01 16:50:00,
2013-01-01 11:00:00,13.0,1.7,30.30,SSW,197,0.0,0.0,60,0.00,,,0.00,387,Wunderground v.1.15,2013-01-01 17:00:00,
2013-01-01 11:10:00,13.4,2.1,30.30,SSW,197,0.0,0.0,60,0.00,,,0.00,397,Wunderground v.1.15,2013-01-01 17:10:00,
2013-01-01 11:20:00,13.9,2.2,30.30,SSW,207,0.0,2.0,59,0.00,,,0.00,406,Wunderground v.1.15,2013-01-01 17:20:00,
2013-01-01 11:30:00,14.6,3.2,30.29,SW,233,1.0,1.0,60,0.00,,,0.00,413,Wunderground v.1.15,2013-01-01 17:30:00,
2013-01-01 11:40:00,14.6,2.5,30.29,WSW,243,1.0,2.0,58,0.00,,,0.00,408,Wunderground v.1.15,2013-01-01 17:40:00,
2013-01-01 11:45:00,14.1,2.0,30.29,WSW,243,2.0,2.0,58,0.00,,,0.00,422,Wunderground v.1.15,2013-01-01 17:45:00,
2013-01-01 11:55:00,14.7,2.6,30.29,SW,236,1.0,3.0,58,0.00,,,0.00,427,Wunderground v.1.15,2013-01-01 17:55:00,
2013-01-01 12:05:00,15.1,3.3,30.27,SW,221,2.0,2.0,59,0.00,,,0.00,438,Wunderground v.1.15,2013-01-01 18:05:00,
2013-01-01 12:10:00,15.5,3.0,30.27,SW,227,1.0,2.0,57,0.00,,,0.00,441,Wunderground v.1.15,2013-01-01 18:10:00,
2013-01-01 12:20:00,15.4,2.9,30.26,SW,232,2.0,2.0,57,0.00,,,0.00,443,Wunderground v.1.15,2013-01-01 18:20:00,
2013-01-01 12:30:00,15.6,2.7,30.26,SW,231,1.0,1.0,56,0.00,,,0.00,353,Wunderground v.1.15,2013-01-01 18:30:00,
2013-01-01 12:40:00,15.6,3.4,30.26,SW,230,1.0,1.0,58,0.00,,,0.00,406,Wunderground v.1.15,2013-01-01 18:40:00,
2013-01-01 12:45:00,15.6,3.1,30.26,WSW,248,1.0,1.0,57,0.00,,,0.00,413,Wunderground v.1.15,2013-01-01 18:45:00,
2013-01-01 12:55:00,15.9,4.1,30.26,WSW,248,1.0,2.0,59,0.00,,,0.00,432,Wunderground v.1.15,2013-01-01 18:55:00,
2013-01-01 13:00:00,15.9,3.7,30.25,WSW,244,1.0,1.0,58,0.00,,,0.00,392,Wunderground v.1.15,2013-01-01 19:00:00,
2013-01-01 13:05:00,16.1,4.6,30.25,West,261,2.0,2.0,60,0.00,,,0.00,362,Wunderground v.1.15,2013-01-01 19:05:00,
2013-01-01 13:10:00,16.2,5.5,30.25,West,265,2.0,2.0,62,0.00,,,0.00,330,Wunderground v.1.15,2013-01-01 19:10:00,
2013-01-01 13:20:00,15.8,5.1,30.25,WSW,238,2.0,2.0,62,0.00,,,0.00,111,Wunderground v.1.15,2013-01-01 19:20:00,
2013-01-01 13:30:00,16.3,5.2,30.25,WSW,239,2.0,2.0,61,0.00,,,0.00,118,Wunderground v.1.15,2013-01-01 19:30:00,
2013-01-01 13:40:00,16.8,6.0,30.25,SSW,205,1.0,1.0,62,0.00,,,0.00,274,Wunderground v.1.15,2013-01-01 19:40:00,
2013-01-01 13:50:00,17.7,6.5,30.24,SW,233,1.0,1.0,61,0.00,,,0.00,98,Wunderground v.1.15,2013-01-01 19:50:00,
2013-01-01 14:00:00,17.7,7.2,30.23,WSW,238,1.0,2.0,63,0.00,,,0.00,72,Wunderground v.1.15,2013-01-01 20:00:00,
2013-01-01 14:05:00,17.7,6.2,30.23,SW,236,1.0,2.0,60,0.00,,,0.00,200,Wunderground v.1.15,2013-01-01 20:05:00,
2013-01-01 14:15:00,18.0,6.1,30.23,SW,228,1.0,2.0,59,0.00,,,0.00,302,Wunderground v.1.15,2013-01-01 20:15:00,
2013-01-01 14:25:00,18.9,7.7,30.23,WSW,250,1.0,1.0,61,0.00,,,0.00,185,Wunderground v.1.15,2013-01-01 20:25:00,
2013-01-01 14:35:00,18.6,7.0,30.22,WSW,242,1.0,2.0,60,0.00,,,0.00,281,Wunderground v.1.15,2013-01-01 20:35:00,
2013-01-01 14:45:00,18.7,6.4,30.22,SW,230,1.0,2.0,58,0.00,,,0.00,306,Wunderground v.1.15,2013-01-01 20:45:00,
2013-01-01 14:55:00,18.9,7.3,30.22,SW,232,1.0,2.0,60,0.00,,,0.00,287,Wunderground v.1.15,2013-01-01 20:55:00,
2013-01-01 15:05:00,18.8,6.4,30.21,WSW,238,2.0,2.0,58,0.00,,,0.00,236,Wunderground v.1.15,2013-01-01 21:05:00,
2013-01-01 15:15:00,19.4,7.4,30.21,WSW,238,1.0,2.0,59,0.00,,,0.00,174,Wunderground v.1.15,2013-01-01 21:15:00,
2013-01-01 15:20:00,19.5,7.5,30.21,WSW,239,0.0,1.0,59,0.00,,,0.00,207,Wunderground v.1.15,2013-01-01 21:20:00,
2013-01-01 15:30:00,19.1,7.1,30.21,WSW,240,1.0,1.0,59,0.00,,,0.00,193,Wunderground v.1.15,2013-01-01 21:30:00,
2013-01-01 15:40:00,19.7,8.0,30.21,South,174,1.0,1.0,60,0.00,,,0.00,188,Wunderground v.1.15,2013-01-01 21:40:00,
2013-01-01 15:45:00,19.8,8.5,30.21,SW,236,0.0,1.0,61,0.00,,,0.00,179,Wunderground v.1.15,2013-01-01 21:45:00,
2013-01-01 15:55:00,19.8,8.5,30.21,SW,223,1.0,1.0,61,0.00,,,0.00,151,Wunderground v.1.15,2013-01-01 21:55:00,
2013-01-01 16:05:00,19.8,8.9,30.20,SSW,195,1.0,1.0,62,0.00,,,0.00,128,Wunderground v.1.15,2013-01-01 22:05:00,
2013-01-01 16:15:00,20.0,9.1,30.19,SW,223,0.0,0.0,62,0.00,,,0.00,91,Wunderground v.1.15,2013-01-01 22:15:00,
2013-01-01 16:20:00,20.2,9.6,30.19,SW,223,0.0,0.0,63,0.00,,,0.00,76,Wunderground v.1.15,2013-01-01 22:20:00,
2013-01-01 16:30:00,20.0,9.4,30.19,SSW,205,0.0,1.0,63,0.00,,,0.00,47,Wunderground v.1.15,2013-01-01 22:30:00,
2013-01-01 16:40:00,20.1,9.5,30.19,SSW,209,0.0,0.0,63,0.00,,,0.00,25,Wunderground v.1.15,2013-01-01 22:40:00,
2013-01-01 16:50:00,19.8,9.2,30.18,SSW,209,0.0,0.0,63,0.00,,,0.00,12,Wunderground v.1.15,2013-01-01 22:50:00,
2013-01-01 17:00:00,19.8,9.2,30.18,SSW,207,0.0,0.0,63,0.00,,,0.00,7,Wunderground v.1.15,2013-01-01 23:00:00,
2013-01-01 17:10:00,19.6,9.4,30.18,South,185,0.0,0.0,64,0.00,,,0.00,0,Wunderground v.1.15,2013-01-01 23:10:00,
2013-01-01 17:20:00,19.5,9.3,30.18,South,174,0.0,2.0,64,0.00,,,0.00,0,Wunderground v.1.15,2013-01-01 23:20:00,
2013-01-01 17:25:00,19.4,9.2,30.18,SSW,192,0.0,2.0,64,0.00,,,0.00,0,Wunderground v.1.15,2013-01-01 23:25:00,
2013-01-01 17:35:00,19.2,9.4,30.18,SSW,196,1.0,1.0,65,0.00,,,0.00,0,Wunderground v.1.15,2013-01-01 23:35:00,
2013-01-01 17:45:00,19.1,9.6,30.17,SSW,196,0.0,1.0,66,0.00,,,0.00,0,Wunderground v.1.15,2013-01-01 23:45:00,
2013-01-01 17:55:00,18.8,9.6,30.17,SSW,196,1.0,1.0,67,0.00,,,0.00,0,Wunderground v.1.15,2013-01-01 23:55:00,
2013-01-01 18:00:00,18.7,9.9,30.16,South,182,1.0,1.0,68,0.00,,,0.00,0,Wunderground v.1.15,2013-01-02 00:00:00,
2013-01-01 18:05:00,18.6,9.8,30.16,SSW,196,1.0,1.0,68,0.00,,,0.00,0,Wunderground v.1.15,2013-01-02 00:05:00,
2013-01-01 18:15:00,18.3,9.8,30.16,South,177,1.0,1.0,69,0.00,,,0.00,0,Wunderground v.1.15,2013-01-02 00:15:00,
2013-01-01 18:25:00,18.0,9.5,30.16,SSW,205,0.0,1.0,69,0.00,,,0.00,0,Wunderground v.1.15,2013-01-02 00:25:00,
2013-01-01 18:30:00,17.9,9.8,30.16,SSW,211,0.0,0.0,70,0.00,,,0.00,0,Wunderground v.1.15,2013-01-02 00:30:00,
2013-01-01 18:40:00,17.7,9.9,30.16,SSW,211,0.0,0.0,71,0.00,,,0.00,0,Wunderground v.1.15,2013-01-02 00:40:00,
2013-01-01 18:50:00,17.4,9.6,30.16,SW,220,0.0,0.0,71,0.00,,,0.00,0,Wunderground v.1.15,2013-01-02 00:50:00,
2013-01-01 19:00:00,17.1,9.6,30.16,SW,222,0.0,0.0,72,0.00,,,0.00,0,Wunderground v.1.15,2013-01-02 01:00:00,
2013-01-01 19:10:00,16.8,9.6,30.16,SW,216,0.0,0.0,73,0.00,,,0.00,0,Wunderground v.1.15,2013-01-02 01:10:00,
2013-01-01 19:20:00,16.6,9.8,30.15,SW,216,0.0,0.0,74,0.00,,,0.00,0,Wunderground v.1.15,2013-01-02 01:20:00,
2013-01-01 19:30:00,16.5,10.0,30.15,SW,217,0.0,0.0,75,0.00,,,0.00,0,Wunderground v.1.15,2013-01-02 01:30:00,
2013-01-01 19:40:00,16.3,9.8,30.15,SSW,197,0.0,0.0,75,0.00,,,0.00,0,Wunderground v.1.15,2013-01-02 01:40:00,
2013-01-01 19:45:00,16.3,10.1,30.15,SSW,196,0.0,0.0,76,0.00,,,0.00,0,Wunderground v.1.15,2013-01-02 01:45:00,
2013-01-01 19:50:00,16.3,10.1,30.15,SSW,205,0.0,0.0,76,0.00,,,0.00,0,Wunderground v.1.15,2013-01-02 01:50:00,
2013-01-01 19:55:00,16.2,10.0,30.15,SSW,204,0.0,0.0,76,0.00,,,0.00,0,Wunderground v.1.15,2013-01-02 01:55:00,
2013-01-01 20:05:00,16.2,10.3,30.15,SSW,206,0.0,0.0,77,0.00,,,0.00,0,Wunderground v.1.15,2013-01-02 02:05:00,
2013-01-01 20:10:00,16.2,10.3,30.15,SSW,201,0.0,0.0,77,0.00,,,0.00,0,Wunderground v.1.15,2013-01-02 02:10:00,
2013-01-01 20:15:00,16.1,10.4,30.15,SSW,202,0.0,0.0,78,0.00,,,0.00,0,Wunderground v.1.15,2013-01-02 02:15:00,
2013-01-01 20:25:00,16.1,10.4,30.15,South,185,0.0,0.0,78,0.00,,,0.00,0,Wunderground v.1.15,2013-01-02 02:25:00,
2013-01-01 20:35:00,16.0,10.6,30.15,South,188,0.0,0.0,79,0.00,,,0.00,0,Wunderground v.1.15,2013-01-02 02:35:00,
2013-01-01 20:45:00,15.9,10.5,30.14,South,188,0.0,0.0,79,0.00,,,0.00,0,Wunderground v.1.15,2013-01-02 02:45:00,
2013-01-01 20:55:00,15.3,10.0,30.14,South,188,0.0,0.0,79,0.00,,,0.00,0,Wunderground v.1.15,2013-01-02 02:55:00,
2013-01-01 21:05:00,14.9,9.6,30.14,South,188,0.0,0.0,79,0.00,,,0.00,0,Wunderground v.1.15,2013-01-02 03:05:00,
2013-01-01 21:15:00,14.5,9.5,30.13,South,188,0.0,0.0,80,0.00,,,0.00,0,Wunderground v.1.15,2013-01-02 03:15:00,
2013-01-01 21:20:00,14.3,9.3,30.13,South,188,0.0,0.0,80,0.00,,,0.00,0,Wunderground v.1.15,2013-01-02 03:20:00,
2013-01-01 21:30:00,13.7,9.0,30.12,South,188,0.0,0.0,81,0.00,,,0.00,0,Wunderground v.1.15,2013-01-02 03:30:00,
2013-01-01 21:35:00,13.6,8.9,30.12,South,188,0.0,0.0,81,0.00,,,0.00,0,Wunderground v.1.15,2013-01-02 03:35:00,
2013-01-01 21:45:00,13.8,9.3,30.12,South,188,0.0,0.0,82,0.00,,,0.00,0,Wunderground v.1.15,2013-01-02 03:45:00,
2013-01-01 21:55:00,13.7,9.2,30.12,South,188,0.0,0.0,82,0.00,,,0.00,0,Wunderground v.1.15,2013-01-02 03:55:00,
2013-01-01 22:00:00,13.7,9.2,30.12,South,188,0.0,0.0,82,0.00,,,0.00,0,Wunderground v.1.15,2013-01-02 04:00:00,
2013-01-01 22:10:00,13.6,9.4,30.12,South,188,0.0,0.0,83,0.00,,,0.00,0,Wunderground v.1.15,2013-01-02 04:10:00,
2013-01-01 22:20:00,12.7,8.5,30.11,South,188,0.0,0.0,83,0.00,,,0.00,0,Wunderground v.1.15,2013-01-02 04:20:00,
2013-01-01 22:30:00,12.1,7.9,30.11,South,188,0.0,0.0,83,0.00,,,0.00,0,Wunderground v.1.15,2013-01-02 04:30:00,
2013-01-01 22:35:00,11.9,7.7,30.11,South,188,0.0,0.0,83,0.00,,,0.00,0,Wunderground v.1.15,2013-01-02 04:35:00,
2013-01-01 22:40:00,12.0,8.1,30.11,South,188,0.0,0.0,84,0.00,,,0.00,0,Wunderground v.1.15,2013-01-02 04:40:00,
2013-01-01 22:45:00,12.0,8.1,30.11,South,188,0.0,0.0,84,0.00,,,0.00,0,Wunderground v.1.15,2013-01-02 04:45:00,
2013-01-01 22:55:00,12.1,8.2,30.11,South,188,0.0,0.0,84,0.00,,,0.00,0,Wunderground v.1.15,2013-01-02 04:55:00,
2013-01-01 23:00:00,12.6,8.9,30.11,South,188,0.0,0.0,85,0.00,,,0.00,0,Wunderground v.1.15,2013-01-02 05:00:00,
2013-01-01 23:05:00,13.2,9.5,30.11,South,188,0.0,0.0,85,0.00,,,0.00,0,Wunderground v.1.15,2013-01-02 05:05:00,
2013-01-01 23:15:00,12.8,9.1,30.11,South,188,0.0,0.0,85,0.00,,,0.00,0,Wunderground v.1.15,2013-01-02 05:15:00,
2013-01-01 23:20:00,12.4,8.7,30.11,South,188,0.0,0.0,85,0.00,,,0.00,0,Wunderground v.1.15,2013-01-02 05:20:00,
2013-01-01 23:25:00,12.5,8.8,30.11,South,188,0.0,0.0,85,0.00,,,0.00,0,Wunderground v.1.15,2013-01-02 05:25:00,
2013-01-01 23:30:00,12.9,9.5,30.11,South,188,0.0,0.0,86,0.00,,,0.00,0,Wunderground v.1.15,2013-01-02 05:30:00,
2013-01-01 23:40:00,12.2,8.6,30.11,South,188,0.0,0.0,85,0.00,,,0.00,0,Wunderground v.1.15,2013-01-02 05:40:00,
2013-01-01 23:45:00,12.3,8.9,30.10,South,188,0.0,0.0,86,0.00,,,0.00,0,Wunderground v.1.15,2013-01-02 05:45:00,
2013-01-01 23:55:00,12.1,8.5,30.10,South,188,0.0,0.0,85,0.00,,,0.00,0,Wunderground v.1.15,2013-01-02 05:55:00,